Terminal Aerodrome Forecast
Issued by NWS

Home | Current Version | Previous Version | Text Only | Print | Product List | Glossary On
Versions: 1 2 3 4 5 6 7 8 9 10 11 12 13 14
833
FTPA31 PHFO 170521
TAFHMK
TAF
PHMK 170521Z 1706/1806 04010KT P6SM FEW025 SCT040
     FM171200 04014KT P6SM VCSH FEW020 BKN045
     FM171900 04017G26KT P6SM VCSH FEW020 BKN045
     FM172200 04022G30KT P6SM FEW025 SCT045
      AMD NOT SKED=

USA.gov is the U.S. government's official web portal to all federal, state and local government web resources and services.